createdAt,value
2022-09-06T00:02:21.648Z,96765.81
2022-09-06T00:04:50.031Z,96762.13
2022-09-06T00:07:18.491Z,96767.94
2022-09-06T00:09:46.586Z,96759.59
2022-09-06T00:12:14.709Z,96750.75
2022-09-06T00:14:42.814Z,96760.06
2022-09-06T00:17:12.738Z,96756.56
2022-09-06T00:19:41.086Z,96746.03
2022-09-06T00:22:09.875Z,96752.38
2022-09-06T00:24:38.209Z,96745.53
2022-09-06T00:27:06.722Z,96753.00
2022-09-06T00:29:35.002Z,96751.84
2022-09-06T00:32:03.388Z,96756.50
2022-09-06T00:34:33.083Z,96754.50
2022-09-06T00:37:01.279Z,96758.31
2022-09-06T00:39:29.773Z,96755.91
2022-09-06T00:41:58.001Z,96764.78
2022-09-06T00:44:25.943Z,96767.47
2022-09-06T00:46:55.966Z,96760.44
2022-09-06T00:49:27.033Z,96760.06
2022-09-06T00:52:02.160Z,96756.09
2022-09-06T00:54:30.553Z,96760.91
2022-09-06T00:57:00.501Z,96756.72
2022-09-06T00:59:31.259Z,96758.03
2022-09-06T01:01:59.842Z,96762.72
2022-09-06T01:04:28.845Z,96762.31
2022-09-06T01:07:07.400Z,96753.69
2022-09-06T01:09:49.203Z,96765.84
2022-09-06T01:12:28.120Z,96761.34
2022-09-06T01:15:12.945Z,96753.66
2022-09-06T01:17:54.676Z,96762.16
2022-09-06T01:20:46.177Z,96767.28
2022-09-06T01:23:36.479Z,96762.28
2022-09-06T01:26:31.151Z,96762.06
2022-09-06T01:29:00.808Z,96760.09
2022-09-06T01:31:46.417Z,96761.94
2022-09-06T01:34:24.055Z,96762.63
2022-09-06T01:37:09.496Z,96764.28
2022-09-06T01:39:39.557Z,96766.59
2022-09-06T01:42:11.365Z,96767.09
2022-09-06T01:44:44.044Z,96765.44
2022-09-06T01:47:23.103Z,96766.59
2022-09-06T01:50:03.959Z,96775.56
2022-09-06T01:52:39.880Z,96772.25
2022-09-06T01:55:22.669Z,96781.59
2022-09-06T01:58:06.456Z,96782.91
2022-09-06T02:00:44.393Z,96782.06
2022-09-06T02:03:21.709Z,96779.78
2022-09-06T02:05:54.104Z,96780.91
2022-09-06T02:08:27.306Z,96790.28
2022-09-06T02:10:59.966Z,96840.41
2022-09-06T02:13:34.741Z,96839.88
2022-09-06T02:16:06.295Z,96841.22
2022-09-06T02:18:39.372Z,96829.94
2022-09-06T02:21:08.048Z,96836.13
2022-09-06T02:23:40.476Z,96841.00
2022-09-06T02:26:14.552Z,96833.13
2022-09-06T02:28:42.643Z,96837.72
2022-09-06T02:31:17.533Z,96832.19
2022-09-06T02:33:48.408Z,96835.06
2022-09-06T02:36:16.843Z,96831.28
2022-09-06T02:38:46.839Z,96827.97
2022-09-06T02:41:18.537Z,96821.31
2022-09-06T02:43:46.790Z,96817.53
2022-09-06T02:46:16.759Z,96811.84
2022-09-06T02:48:44.858Z,96798.28
2022-09-06T02:51:13.010Z,96794.63
2022-09-06T02:53:41.133Z,96784.78
2022-09-06T02:56:09.623Z,96776.91
2022-09-06T03:03:34.097Z,96764.25
2022-09-06T03:06:02.374Z,96763.25
2022-09-06T03:08:33.627Z,96779.13
2022-09-06T03:11:02.188Z,96795.84
2022-09-06T03:13:30.788Z,96798.53
2022-09-06T03:16:00.688Z,96798.53
2022-09-06T03:18:31.065Z,96801.19
2022-09-06T03:21:00.849Z,96793.50
2022-09-06T03:23:30.174Z,96791.66
2022-09-06T03:25:58.548Z,96785.16
2022-09-06T03:28:27.872Z,96784.00
2022-09-06T03:30:56.133Z,96778.97
2022-09-06T03:33:24.425Z,96779.81
2022-09-06T03:35:54.622Z,96774.47
2022-09-06T03:38:25.742Z,96782.47
2022-09-06T03:40:53.936Z,96787.16
2022-09-06T03:43:23.575Z,96791.16
2022-09-06T03:45:53.385Z,96784.97
2022-09-06T03:48:23.086Z,96790.66
2022-09-06T03:50:54.220Z,96781.94
2022-09-06T03:53:25.751Z,96791.28
2022-09-06T03:55:55.605Z,96783.75
2022-09-06T03:58:25.292Z,96786.44
2022-09-06T04:01:02.094Z,96793.94
2022-09-06T04:03:30.191Z,96784.72
2022-09-06T04:05:58.223Z,96795.91
2022-09-06T04:08:28.034Z,96798.75
2022-09-06T04:10:56.996Z,96789.38
2022-09-06T04:13:26.348Z,96783.19
2022-09-06T04:15:54.476Z,96786.84
2022-09-06T04:18:22.999Z,96786.69
2022-09-06T04:20:52.213Z,96770.66
2022-09-06T04:23:21.254Z,96786.03
2022-09-06T04:25:52.299Z,96785.50
2022-09-06T04:28:21.242Z,96791.50
2022-09-06T04:30:54.169Z,96780.69
2022-09-06T04:33:25.776Z,96782.34
2022-09-06T04:35:54.711Z,96775.19
2022-09-06T04:38:24.256Z,96779.84
2022-09-06T04:40:55.529Z,96780.81
2022-09-06T04:43:24.397Z,96785.19
2022-09-06T04:45:52.445Z,96785.19
2022-09-06T04:48:20.737Z,96784.50
2022-09-06T04:50:48.811Z,96776.34
2022-09-06T04:53:16.893Z,96772.31
2022-09-06T04:55:45.160Z,96761.28
2022-09-06T04:58:14.579Z,96768.47
2022-09-06T05:00:44.742Z,96776.97
2022-09-06T05:03:12.806Z,96779.66
2022-09-06T05:05:41.440Z,96779.44
2022-09-06T05:08:09.532Z,96785.94
2022-09-06T05:10:37.568Z,96792.13
2022-09-06T05:13:05.633Z,96790.28
2022-09-06T05:15:35.016Z,96790.13
2022-09-06T05:18:04.955Z,96789.63
2022-09-06T05:20:33.465Z,96792.28
2022-09-06T05:23:01.661Z,96793.28
2022-09-06T05:25:29.695Z,96793.28
2022-09-06T05:27:57.767Z,96799.63
2022-09-06T05:30:25.788Z,96804.66
2022-09-06T05:32:55.219Z,96805.94
2022-09-06T05:35:23.333Z,96806.63
2022-09-06T05:37:51.461Z,96813.66
2022-09-06T05:40:19.553Z,96821.34
2022-09-06T05:42:47.556Z,96813.84
2022-09-06T05:45:15.791Z,96823.22
2022-09-06T05:47:43.800Z,96817.03
2022-09-06T05:50:13.580Z,96821.91
2022-09-06T05:52:41.658Z,96820.75
2022-09-06T05:55:10.583Z,96822.41
2022-09-06T05:57:38.964Z,96823.28
2022-09-06T06:00:08.064Z,96827.28
2022-09-06T06:02:40.002Z,96828.16
2022-09-06T06:05:09.024Z,96829.66
2022-09-06T06:07:38.515Z,96833.84
2022-09-06T06:10:07.552Z,96830.34
2022-09-06T06:12:35.686Z,96827.16
2022-09-06T06:15:05.787Z,96827.69
2022-09-06T06:17:34.159Z,96832.88
2022-09-06T06:20:02.321Z,96822.34
2022-09-06T06:22:30.319Z,96824.53
2022-09-06T06:24:59.799Z,96829.25
2022-09-06T06:27:27.775Z,96834.41
2022-09-06T06:29:55.854Z,96825.91
2022-09-06T06:32:23.884Z,96836.28
2022-09-06T06:34:51.964Z,96834.66
2022-09-06T06:37:20.018Z,96837.00
2022-09-06T06:39:48.247Z,96842.19
2022-09-06T06:42:17.801Z,96845.28
2022-09-06T06:44:53.850Z,96839.94
2022-09-06T06:47:21.922Z,96846.97
2022-09-06T06:49:49.990Z,96840.78
2022-09-06T06:52:18.146Z,96845.81
2022-09-06T06:54:46.331Z,96844.00
2022-09-06T06:57:14.485Z,96838.47
2022-09-06T06:59:43.916Z,96833.94
2022-09-06T07:02:12.654Z,96829.75
2022-09-06T07:04:40.828Z,96829.38
2022-09-06T07:12:45.645Z,96832.03
2022-09-06T07:15:15.224Z,96843.06
2022-09-06T07:17:44.145Z,96835.38
2022-09-06T07:20:12.985Z,96831.50
2022-09-06T07:22:42.056Z,96829.66
2022-09-06T07:25:12.189Z,96828.97
2022-09-06T07:27:49.603Z,96835.84
2022-09-06T07:30:20.831Z,96829.28
2022-09-06T07:32:48.964Z,96832.94
2022-09-06T07:35:17.629Z,96825.06
2022-09-06T07:37:53.146Z,96822.81
2022-09-06T07:40:21.318Z,96823.44
2022-09-06T07:42:49.612Z,96827.09
2022-09-06T07:45:19.859Z,96832.75
2022-09-06T07:53:15.472Z,96817.50
2022-09-06T07:55:45.981Z,96817.47
2022-09-06T07:58:14.270Z,96809.72
2022-09-06T08:00:43.811Z,96809.34
2022-09-06T08:03:11.990Z,96807.97
2022-09-06T08:11:16.347Z,96802.69
2022-09-06T08:13:44.825Z,96806.69
2022-09-06T08:16:20.254Z,96809.31
2022-09-06T08:18:52.010Z,96819.31
2022-09-06T08:21:20.747Z,96824.25
2022-09-06T08:23:50.219Z,96822.72
2022-09-06T08:26:19.203Z,96811.19
2022-09-06T08:28:47.536Z,96814.00
2022-09-06T08:31:17.108Z,96802.13
2022-09-06T08:33:47.776Z,96801.75
2022-09-06T08:36:16.388Z,96809.09
2022-09-06T08:38:44.777Z,96810.66
2022-09-06T08:41:24.314Z,96818.34
2022-09-06T08:46:52.110Z,96813.44
2022-09-06T08:49:22.139Z,96809.06
2022-09-06T08:52:14.123Z,96804.59
2022-09-06T08:54:47.969Z,96798.50
2022-09-06T08:57:31.077Z,96796.16
2022-09-06T09:00:03.697Z,96799.63
2022-09-06T09:02:43.907Z,96796.47
2022-09-06T09:05:24.404Z,96807.88
2022-09-06T09:08:03.625Z,96798.28
2022-09-06T09:10:35.962Z,96800.22
2022-09-06T09:13:08.744Z,96802.41
2022-09-06T09:15:40.345Z,96798.75
2022-09-06T09:18:08.933Z,96793.16
2022-09-06T09:20:40.154Z,96799.81
2022-09-06T09:23:08.362Z,96801.31
2022-09-06T09:25:39.529Z,96793.66
2022-09-06T09:28:17.243Z,96795.94
2022-09-06T09:30:51.693Z,96798.94
2022-09-06T09:33:28.677Z,96796.09
2022-09-06T09:36:00.661Z,96799.88
2022-09-06T09:38:31.855Z,96800.75
2022-09-06T09:41:03.737Z,96804.34
2022-09-06T09:43:33.059Z,96804.41
2022-09-06T09:46:29.838Z,96796.63
2022-09-06T09:49:30.101Z,96798.16
2022-09-06T09:52:10.705Z,96794.41
2022-09-06T09:54:41.112Z,96802.31
2022-09-06T09:57:11.839Z,96788.22
2022-09-06T09:59:45.385Z,96790.72
2022-09-06T10:02:27.293Z,96790.59
2022-09-06T10:05:02.229Z,96789.50
2022-09-06T10:07:33.722Z,96789.75
2022-09-06T10:10:05.266Z,96784.19
2022-09-06T10:12:35.636Z,96781.09
2022-09-06T10:15:06.852Z,96767.19
2022-09-06T10:17:37.819Z,96776.78
2022-09-06T10:20:09.326Z,96773.25
2022-09-06T10:22:49.817Z,96770.56
2022-09-06T10:25:39.426Z,96770.13
2022-09-06T10:28:24.081Z,96765.16
2022-09-06T10:31:23.716Z,96761.84
2022-09-06T10:34:03.093Z,96754.75
2022-09-06T10:36:35.627Z,96763.06
2022-09-06T10:39:17.722Z,96756.44
2022-09-06T10:42:00.600Z,96761.63
2022-09-06T10:44:43.714Z,96752.88
2022-09-06T10:47:14.442Z,96753.13
2022-09-06T10:49:50.384Z,96759.34
2022-09-06T10:52:24.259Z,96746.03
2022-09-06T10:55:02.245Z,96744.38
2022-09-06T11:00:25.628Z,96744.38
2022-09-06T11:05:54.147Z,96736.88
2022-09-06T11:11:21.771Z,96732.31
2022-09-06T11:13:50.204Z,96734.41
2022-09-06T11:16:24.321Z,96741.06
2022-09-06T11:18:57.399Z,96739.81
2022-09-06T11:21:56.428Z,96741.44
2022-09-06T11:24:32.717Z,96744.16
2022-09-06T11:27:06.995Z,96734.19
2022-09-06T11:29:36.691Z,96737.75
2022-09-06T11:32:26.405Z,96740.63
2022-09-06T11:34:56.302Z,96743.56
2022-09-06T11:37:27.492Z,96741.50
2022-09-06T11:43:14.862Z,96739.38
2022-09-06T11:45:46.251Z,96736.06
2022-09-06T11:48:37.382Z,96732.53
2022-09-06T11:51:10.993Z,96729.38
2022-09-06T11:54:12.195Z,96721.91
2022-09-06T11:56:44.250Z,96710.88
2022-09-06T11:59:31.354Z,96713.78
2022-09-06T12:02:05.030Z,96706.47
2022-09-06T12:05:11.830Z,96703.78
2022-09-06T12:08:18.266Z,96696.81
2022-09-06T12:10:51.459Z,96700.34
2022-09-06T12:13:54.026Z,96710.34
2022-09-06T12:16:24.307Z,96714.72
2022-09-06T12:19:04.728Z,96718.91
2022-09-06T12:21:52.198Z,96720.53
2022-09-06T12:25:02.165Z,96710.94
2022-09-06T12:27:33.154Z,96702.09
2022-09-06T12:30:04.434Z,96702.50
2022-09-06T12:32:37.536Z,96704.16
2022-09-06T12:38:00.157Z,96697.94
2022-09-06T12:40:30.590Z,96693.09
2022-09-06T12:42:59.491Z,96694.19
2022-09-06T12:45:27.865Z,96687.97
2022-09-06T12:48:09.729Z,96700.72
2022-09-06T12:50:38.867Z,96713.03
2022-09-06T12:53:23.411Z,96711.19
2022-09-06T12:56:04.469Z,96708.97
2022-09-06T12:58:32.634Z,96710.25
2022-09-06T13:01:07.980Z,96716.09
2022-09-06T13:03:42.748Z,96716.75
2022-09-06T13:06:20.416Z,96721.94
2022-09-06T13:08:55.451Z,96727.94
2022-09-06T13:11:27.473Z,96728.50
2022-09-06T13:13:56.552Z,96729.47
2022-09-06T13:16:27.272Z,96721.81
2022-09-06T13:19:11.572Z,96721.56
2022-09-06T13:21:42.240Z,96713.22
2022-09-06T13:24:22.080Z,96703.84
2022-09-06T13:26:50.815Z,96704.22
2022-09-06T13:29:26.730Z,96694.66
2022-09-06T13:31:57.030Z,96688.44
2022-09-06T13:34:28.242Z,96682.44
2022-09-06T13:37:02.255Z,96679.94
2022-09-06T13:39:32.720Z,96679.72
2022-09-06T13:42:07.582Z,96676.81
2022-09-06T13:44:37.017Z,96681.78
2022-09-06T13:47:05.762Z,96679.69
2022-09-06T13:49:35.191Z,96678.22
2022-09-06T13:52:05.032Z,96676.97
2022-09-06T13:54:34.049Z,96672.03
2022-09-06T13:57:02.776Z,96663.13
2022-09-06T13:59:31.580Z,96655.03
2022-09-06T14:02:02.967Z,96654.38
2022-09-06T14:04:31.973Z,96640.69
2022-09-06T14:07:01.638Z,96634.69
2022-09-06T14:09:30.367Z,96634.75
2022-09-06T14:11:58.482Z,96630.63
2022-09-06T14:14:26.660Z,96638.50
2022-09-06T14:16:54.976Z,96625.03
2022-09-06T14:19:24.202Z,96626.28
2022-09-06T14:21:52.511Z,96638.09
2022-09-06T14:24:22.050Z,96647.03
2022-09-06T14:26:50.222Z,96660.34
2022-09-06T14:29:18.337Z,96651.78
2022-09-06T14:31:48.506Z,96655.25
2022-09-06T14:34:16.638Z,96659.44
2022-09-06T14:36:44.760Z,96661.53
2022-09-06T14:39:12.804Z,96662.38
2022-09-06T14:41:42.339Z,96665.28
2022-09-06T14:44:10.937Z,96659.00
2022-09-06T14:46:39.670Z,96664.16
2022-09-06T14:49:10.184Z,96666.44
2022-09-06T14:51:39.811Z,96661.88
2022-09-06T14:54:09.610Z,96657.09
2022-09-06T14:56:40.762Z,96656.03
2022-09-06T14:59:10.890Z,96656.88
2022-09-06T15:01:40.389Z,96662.03
2022-09-06T15:04:10.493Z,96664.06
2022-09-06T15:06:40.748Z,96648.50
2022-09-06T15:09:11.409Z,96635.41
2022-09-06T15:11:41.348Z,96631.13
2022-09-06T15:14:15.447Z,96625.72
2022-09-06T15:16:43.914Z,96618.50
2022-09-06T15:19:12.226Z,96614.38
2022-09-06T15:21:40.502Z,96607.09
2022-09-06T15:24:12.112Z,96615.44
2022-09-06T15:26:41.037Z,96607.13
2022-09-06T15:29:11.994Z,96609.00
2022-09-06T15:31:40.577Z,96611.50
2022-09-06T15:34:09.832Z,96607.34
2022-09-06T15:36:38.602Z,96602.97
2022-09-06T15:39:07.300Z,96613.34
2022-09-06T15:41:37.422Z,96600.91
2022-09-06T15:44:11.378Z,96598.00
2022-09-06T15:46:48.713Z,96596.56
2022-09-06T15:49:19.270Z,96593.22
2022-09-06T15:51:47.721Z,96590.53
2022-09-06T15:54:17.746Z,96598.00
2022-09-06T15:56:46.250Z,96592.59
2022-09-06T15:59:15.775Z,96590.94
2022-09-06T16:01:43.906Z,96583.91
2022-09-06T16:04:12.243Z,96587.19
2022-09-06T16:06:42.648Z,96583.88
2022-09-06T16:09:14.159Z,96585.56
2022-09-06T16:11:43.056Z,96583.28
2022-09-06T16:14:12.824Z,96577.69
2022-09-06T16:16:43.385Z,96570.59
2022-09-06T16:19:13.214Z,96566.28
2022-09-06T16:21:42.867Z,96561.06
2022-09-06T16:24:13.081Z,96560.03
2022-09-06T16:26:43.098Z,96560.25
2022-09-06T16:29:12.428Z,96558.56
2022-09-06T16:31:42.849Z,96560.44
2022-09-06T16:34:11.859Z,96553.19
2022-09-06T16:36:40.697Z,96548.63
2022-09-06T16:39:09.566Z,96547.78
2022-09-06T16:41:40.914Z,96551.53
2022-09-06T16:44:10.293Z,96539.06
2022-09-06T16:46:40.152Z,96542.19
2022-09-06T16:49:10.183Z,96536.78
2022-09-06T16:51:38.556Z,96537.84
2022-09-06T16:54:06.879Z,96539.47
2022-09-06T16:56:36.063Z,96526.19
2022-09-06T16:59:06.585Z,96524.75
2022-09-06T17:01:36.197Z,96524.94
2022-09-06T17:04:05.626Z,96528.06
2022-09-06T17:06:42.214Z,96536.16
2022-09-06T17:09:10.663Z,96532.22
2022-09-06T17:11:40.270Z,96539.88
2022-09-06T17:14:08.843Z,96528.69
2022-09-06T17:16:54.589Z,96537.38
2022-09-06T17:19:22.872Z,96530.09
2022-09-06T17:21:52.722Z,96530.53
2022-09-06T17:24:20.928Z,96532.78
2022-09-06T17:26:49.036Z,96527.00
2022-09-06T17:29:17.124Z,96524.06
2022-09-06T17:31:45.712Z,96515.53
2022-09-06T17:34:13.795Z,96522.34
2022-09-06T17:36:41.943Z,96515.72
2022-09-06T17:39:13.840Z,96510.72
2022-09-06T17:41:45.723Z,96505.13
2022-09-06T17:44:15.500Z,96512.78
2022-09-06T17:46:56.854Z,96507.19
2022-09-06T17:49:27.146Z,96509.44
2022-09-06T17:51:55.309Z,96493.88
2022-09-06T17:54:24.823Z,96493.47
2022-09-06T17:56:52.980Z,96495.69
2022-09-06T17:59:21.198Z,96506.44
2022-09-06T18:01:49.288Z,96514.91
2022-09-06T18:04:18.084Z,96516.34
2022-09-06T18:06:47.874Z,96517.97
2022-09-06T18:09:17.972Z,96508.81
2022-09-06T18:11:47.485Z,96505.84
2022-09-06T18:14:18.035Z,96505.00
2022-09-06T18:16:48.992Z,96509.97
2022-09-06T18:19:18.763Z,96516.34
2022-09-06T18:21:49.054Z,96531.00
2022-09-06T18:24:17.707Z,96539.16
2022-09-06T18:26:47.367Z,96536.03
2022-09-06T18:29:18.447Z,96542.97
2022-09-06T18:31:46.739Z,96551.06
2022-09-06T18:34:16.558Z,96543.69
2022-09-06T18:36:44.757Z,96546.75
2022-09-06T18:39:13.403Z,96530.59
2022-09-06T18:41:58.976Z,96525.56
2022-09-06T18:44:32.259Z,96530.47
2022-09-06T18:47:02.064Z,96521.97
2022-09-06T18:49:30.845Z,96529.41
2022-09-06T18:51:59.092Z,96530.81
2022-09-06T18:54:27.430Z,96537.78
2022-09-06T18:56:55.651Z,96536.50
2022-09-06T18:59:23.723Z,96538.56
2022-09-06T19:01:53.503Z,96540.53
2022-09-06T19:04:21.754Z,96538.22
2022-09-06T19:06:49.919Z,96545.00
2022-09-06T19:09:18.772Z,96550.31
2022-09-06T19:11:51.249Z,96546.13
2022-09-06T19:14:19.623Z,96544.22
2022-09-06T19:16:48.720Z,96548.69
2022-09-06T19:19:18.280Z,96549.44
2022-09-06T19:21:46.586Z,96557.88
2022-09-06T19:24:16.066Z,96554.25
2022-09-06T19:26:46.353Z,96560.19
2022-09-06T19:29:17.525Z,96557.22
2022-09-06T19:31:47.067Z,96558.22
2022-09-06T19:34:16.227Z,96560.66
2022-09-06T19:36:47.081Z,96562.03
2022-09-06T19:39:17.026Z,96570.47
2022-09-06T19:41:47.341Z,96566.47
2022-09-06T19:44:16.360Z,96560.03
2022-09-06T19:46:46.791Z,96563.25
2022-09-06T19:49:17.087Z,96561.78
2022-09-06T19:51:48.816Z,96563.97
2022-09-06T19:54:17.643Z,96571.09
2022-09-06T19:56:46.854Z,96568.16
2022-09-06T19:59:16.323Z,96556.97
2022-09-06T20:01:46.492Z,96558.72
2022-09-06T20:04:15.784Z,96558.22
2022-09-06T20:06:44.100Z,96549.91
2022-09-06T20:09:15.916Z,96544.72
2022-09-06T20:11:44.455Z,96540.38
2022-09-06T20:14:13.298Z,96531.00
2022-09-06T20:16:42.600Z,96528.84
2022-09-06T20:19:13.060Z,96533.41
2022-09-06T20:21:41.598Z,96524.88
2022-09-06T20:24:09.826Z,96527.09
2022-09-06T20:26:40.354Z,96524.13
2022-09-06T20:29:09.222Z,96523.19
2022-09-06T20:31:39.132Z,96524.03
2022-09-06T20:34:08.220Z,96524.34
2022-09-06T20:36:36.688Z,96524.91
2022-09-06T20:39:05.267Z,96524.63
2022-09-06T20:41:33.916Z,96529.97
2022-09-06T20:44:04.015Z,96532.38
2022-09-06T20:46:33.938Z,96525.16
2022-09-06T20:49:04.875Z,96532.75
2022-09-06T20:51:34.326Z,96535.75
2022-09-06T20:54:03.704Z,96542.53
2022-09-06T20:56:34.308Z,96537.69
2022-09-06T20:59:05.512Z,96532.03
2022-09-06T21:01:35.829Z,96533.25
2022-09-06T21:04:07.167Z,96534.91
2022-09-06T21:06:37.076Z,96546.81
2022-09-06T21:09:06.725Z,96545.13
2022-09-06T21:11:34.928Z,96541.81
2022-09-06T21:14:05.351Z,96524.94
2022-09-06T21:16:33.920Z,96533.81
2022-09-06T21:19:03.720Z,96532.50
2022-09-06T21:21:34.501Z,96531.66
2022-09-06T21:24:03.776Z,96532.19
2022-09-06T21:26:32.196Z,96532.56
2022-09-06T21:29:00.696Z,96538.06
2022-09-06T21:31:32.028Z,96532.22
2022-09-06T21:34:03.549Z,96530.75
2022-09-06T21:36:33.992Z,96526.03
2022-09-06T21:39:04.086Z,96519.19
2022-09-06T21:41:34.470Z,96529.06
2022-09-06T21:44:03.993Z,96539.31
2022-09-06T21:46:34.995Z,96534.47
2022-09-06T21:49:08.614Z,96526.63
2022-09-06T21:51:37.492Z,96529.66
2022-09-06T21:54:06.804Z,96521.94
2022-09-06T21:56:37.007Z,96527.84
2022-09-06T21:59:06.333Z,96526.34
2022-09-06T22:01:37.837Z,96523.19
2022-09-06T22:04:06.145Z,96524.19
2022-09-06T22:06:35.926Z,96528.91
2022-09-06T22:09:07.716Z,96531.09
2022-09-06T22:11:36.102Z,96533.28
2022-09-06T22:14:09.151Z,96532.63
2022-09-06T22:16:40.242Z,96534.81
2022-09-06T22:19:09.976Z,96524.94
2022-09-06T22:21:39.392Z,96525.28
2022-09-06T22:24:09.309Z,96533.16
2022-09-06T22:26:39.928Z,96532.66
2022-09-06T22:29:10.277Z,96531.00
2022-09-06T22:31:40.432Z,96528.66
2022-09-06T22:34:10.378Z,96522.31
2022-09-06T22:36:38.675Z,96525.66
2022-09-06T22:39:06.818Z,96529.16
2022-09-06T22:41:35.198Z,96530.34
2022-09-06T22:44:05.095Z,96533.69
2022-09-06T22:46:34.451Z,96533.47
2022-09-06T22:49:05.397Z,96530.66
2022-09-06T22:51:33.626Z,96520.59
2022-09-06T22:54:01.874Z,96518.88
2022-09-06T22:56:30.218Z,96518.72
2022-09-06T22:58:59.896Z,96517.19
2022-09-06T23:01:28.201Z,96522.19
2022-09-06T23:03:56.490Z,96517.47
2022-09-06T23:06:26.126Z,96514.81
2022-09-06T23:08:54.287Z,96517.97
2022-09-06T23:11:22.499Z,96515.31
2022-09-06T23:13:50.834Z,96512.25
2022-09-06T23:16:20.329Z,96509.75
2022-09-06T23:18:49.226Z,96506.53
2022-09-06T23:21:19.430Z,96512.72
2022-09-06T23:23:50.714Z,96521.63
2022-09-06T23:26:22.390Z,96516.06
2022-09-06T23:28:56.353Z,96517.25
2022-09-06T23:31:26.194Z,96499.69
2022-09-06T23:33:55.230Z,96503.22
2022-09-06T23:36:23.389Z,96495.84
2022-09-06T23:38:53.527Z,96498.88
2022-09-06T23:41:22.014Z,96501.38
2022-09-06T23:43:50.219Z,96493.34
2022-09-06T23:46:18.572Z,96493.97
2022-09-06T23:48:46.766Z,96493.97
2022-09-06T23:51:14.994Z,96505.34
2022-09-06T23:53:43.258Z,96500.38
2022-09-06T23:56:13.135Z,96498.66
2022-09-06T23:58:41.480Z,96487.09
